Time;durP1;ratioP1;P1;durP2;ratioP2;P2;SDS_P1;SDS_P2;PMS_P1;PMS_P2;Temp;Humidity;BMP_temperature;BMP_pressure;BME280_temperature;BME280_humidity;BME280_pressure;Samples;Min_cycle;Max_cycle;Signal;HPM_P1;HPM_P2
2024/01/11 00:01:02;;;;;;;49.08;22.80;;;-3.40;99.90;;;;;;5073927;28;20408;-76
2024/01/11 00:03:28;;;;;;;43.40;21.17;;;-3.40;99.90;;;;;;5072579;28;20048;-76
2024/01/11 00:05:54;;;;;;;46.08;21.63;;;-3.40;99.90;;;;;;5072538;28;20407;-75
2024/01/11 00:08:19;;;;;;;48.70;21.33;;;-3.40;99.90;;;;;;5072143;28;20037;-75
2024/01/11 00:10:45;;;;;;;49.85;22.77;;;-3.40;99.90;;;;;;5055924;28;20040;-75
2024/01/11 00:13:10;;;;;;;44.03;20.45;;;-3.50;99.90;;;;;;5073861;28;20067;-75
2024/01/11 00:15:36;;;;;;;46.97;22.33;;;-3.40;99.90;;;;;;5072664;28;20041;-75
2024/01/11 00:18:02;;;;;;;42.58;21.42;;;-3.40;99.90;;;;;;5073563;28;20041;-76
2024/01/11 00:20:27;;;;;;;44.03;21.52;;;-3.50;99.90;;;;;;5072353;28;20147;-75
2024/01/11 00:22:53;;;;;;;53.85;23.63;;;-3.40;99.90;;;;;;5055700;28;20090;-75
2024/01/11 00:25:19;;;;;;;44.05;21.33;;;-3.30;99.90;;;;;;5072187;28;20102;-74
2024/01/11 00:27:44;;;;;;;50.03;24.00;;;-3.50;99.90;;;;;;5072047;28;20128;-75
2024/01/11 00:30:10;;;;;;;44.97;21.40;;;-3.30;99.90;;;;;;5071977;28;20067;-75
2024/01/11 00:32:36;;;;;;;47.67;22.27;;;-3.50;99.90;;;;;;5072530;28;20040;-75
2024/01/11 00:35:01;;;;;;;50.00;23.27;;;-3.50;99.90;;;;;;5072471;28;20041;-74
2024/01/11 00:37:27;;;;;;;42.10;22.02;;;-3.60;99.90;;;;;;5073357;28;20173;-74
2024/01/11 00:39:53;;;;;;;48.42;23.33;;;-3.40;99.90;;;;;;5073119;28;20040;-75
2024/01/11 00:42:18;;;;;;;47.85;23.98;;;-3.50;99.90;;;;;;5073197;28;20554;-74
2024/01/11 00:44:45;;;;;;;47.85;21.77;;;-3.40;99.90;;;;;;5071693;28;20495;-73
2024/01/11 00:47:11;;;;;;;43.15;22.48;;;-3.40;99.90;;;;;;5071711;28;20037;-73
2024/01/11 00:49:36;;;;;;;53.42;22.30;;;-3.40;99.90;;;;;;5072730;28;20059;-73
2024/01/11 00:52:02;;;;;;;51.45;24.05;;;-3.30;99.90;;;;;;5071882;28;20041;-74
2024/01/11 00:54:27;;;;;;;51.15;23.95;;;-3.60;99.90;;;;;;5055021;28;20040;-73
2024/01/11 00:56:53;;;;;;;51.45;24.70;;;-3.30;99.90;;;;;;5071501;28;20050;-75
2024/01/11 00:59:19;;;;;;;52.28;22.60;;;-3.40;99.90;;;;;;5071602;28;20036;-75
2024/01/11 01:01:49;;;;;;;47.88;22.10;;;-3.30;99.90;;;;;;5071812;28;20036;-75
2024/01/11 01:04:14;;;;;;;51.55;24.20;;;-3.30;99.90;;;;;;5072762;28;20044;-75
2024/01/11 01:06:42;;;;;;;52.28;26.60;;;-3.40;99.90;;;;;;5072610;28;20094;-75
2024/01/11 01:09:07;;;;;;;48.30;22.27;;;-3.30;99.90;;;;;;5071149;28;20576;-75
2024/01/11 01:11:33;;;;;;;47.20;22.77;;;-3.40;99.90;;;;;;5071328;28;20040;-75
2024/01/11 01:13:59;;;;;;;54.22;25.58;;;-3.20;99.90;;;;;;5072455;28;20047;-75
2024/01/11 01:16:24;;;;;;;46.05;22.02;;;-3.20;99.90;;;;;;5072404;28;20048;-74
2024/01/11 01:18:50;;;;;;;49.58;24.92;;;-3.30;99.90;;;;;;5072302;28;20058;-74
2024/01/11 01:21:16;;;;;;;45.58;23.13;;;-3.30;99.90;;;;;;5071460;28;20406;-76
2024/01/11 01:23:41;;;;;;;47.85;21.90;;;-3.40;99.90;;;;;;5071294;28;20069;-74
2024/01/11 01:26:07;;;;;;;54.17;23.95;;;-3.30;99.90;;;;;;5071379;28;20084;-74
2024/01/11 01:28:33;;;;;;;43.70;21.52;;;-3.20;99.90;;;;;;5070893;28;20504;-74
2024/01/11 01:30:58;;;;;;;52.75;24.20;;;-3.40;99.90;;;;;;5070999;28;20037;-74
2024/01/11 01:33:24;;;;;;;51.75;23.95;;;-3.20;99.90;;;;;;5072186;28;20517;-73
2024/01/11 01:35:49;;;;;;;52.60;24.00;;;-3.20;99.90;;;;;;5070891;28;20033;-74
2024/01/11 01:38:17;;;;;;;54.35;24.27;;;-3.40;99.90;;;;;;5071963;28;20037;-74
2024/01/11 01:40:42;;;;;;;48.00;22.55;;;-3.50;99.90;;;;;;5071073;28;20136;-74
2024/01/11 01:43:09;;;;;;;52.90;24.30;;;-3.40;99.90;;;;;;5071993;28;20037;-74
2024/01/11 01:45:35;;;;;;;48.38;23.17;;;-3.60;99.90;;;;;;5054160;28;20040;-74
2024/01/11 01:48:02;;;;;;;56.92;22.95;;;-3.40;99.90;;;;;;5070385;28;20604;-74
2024/01/11 01:50:28;;;;;;;52.15;23.95;;;-3.30;99.90;;;;;;5072111;28;20082;-74
2024/01/11 01:52:55;;;;;;;54.95;24.67;;;-3.40;99.90;;;;;;5071978;28;20082;-74
2024/01/11 01:55:23;;;;;;;52.03;21.42;;;-3.30;99.90;;;;;;5053943;28;20519;-74
2024/01/11 01:57:50;;;;;;;47.78;23.65;;;-3.40;99.90;;;;;;5070263;28;20036;-74
2024/01/11 02:00:16;;;;;;;54.85;24.50;;;-3.20;99.90;;;;;;5070492;28;20067;-74
2024/01/11 02:02:46;;;;;;;47.25;21.90;;;-3.20;99.90;;;;;;5070769;28;20056;-74
2024/01/11 02:05:14;;;;;;;43.92;21.75;;;-3.20;99.90;;;;;;5070374;28;20560;-74
2024/01/11 02:07:40;;;;;;;56.95;23.88;;;-3.30;99.90;;;;;;5070494;28;20047;-74
2024/01/11 02:10:07;;;;;;;51.25;22.40;;;-3.20;99.90;;;;;;5070144;28;20037;-74
2024/01/11 02:12:35;;;;;;;49.28;21.48;;;-3.10;99.90;;;;;;5070579;28;20040;-74
2024/01/11 02:15:03;;;;;;;47.83;23.38;;;-3.20;99.90;;;;;;5070710;28;20534;-74
2024/01/11 02:17:29;;;;;;;53.03;23.02;;;-3.20;99.90;;;;;;5070226;28;20044;-74
2024/01/11 02:19:54;;;;;;;50.42;24.08;;;-3.20;99.90;;;;;;5071409;28;20047;-74
2024/01/11 02:22:32;;;;;;;49.30;23.30;;;-3.20;99.90;;;;;;5071491;28;20090;-73
2024/01/11 02:24:58;;;;;;;51.60;23.38;;;-3.20;99.90;;;;;;5070200;28;20131;-74
2024/01/11 02:27:24;;;;;;;51.47;24.73;;;-3.30;99.90;;;;;;5071491;28;20106;-74
2024/01/11 02:29:49;;;;;;;53.75;23.50;;;-3.10;99.90;;;;;;5071454;28;20036;-73
2024/01/11 02:32:15;;;;;;;49.45;22.05;;;-3.10;99.90;;;;;;5071553;28;20128;-73
2024/01/11 02:34:42;;;;;;;51.15;22.23;;;-3.10;99.90;;;;;;5070079;28;20044;-74
2024/01/11 02:37:07;;;;;;;52.28;23.85;;;-3.20;99.90;;;;;;5070009;28;20048;-74
2024/01/11 02:39:34;;;;;;;50.22;23.95;;;-3.10;99.90;;;;;;5069814;28;20040;-74
2024/01/11 02:42:00;;;;;;;51.42;23.20;;;-3.20;99.90;;;;;;5071559;28;20128;-74
2024/01/11 02:44:26;;;;;;;50.67;23.60;;;-3.20;99.90;;;;;;5070208;28;20106;-74
2024/01/11 02:46:51;;;;;;;51.05;25.15;;;-3.20;99.90;;;;;;5070125;28;20036;-74
2024/01/11 02:49:17;;;;;;;54.65;23.65;;;-3.10;99.90;;;;;;5070029;28;20044;-74
2024/01/11 02:51:43;;;;;;;48.30;22.60;;;-3.20;99.90;;;;;;5070095;28;20115;-74
2024/01/11 02:54:08;;;;;;;51.97;22.92;;;-3.20;99.90;;;;;;5069915;28;20037;-73
2024/01/11 02:56:34;;;;;;;52.30;22.23;;;-3.20;99.90;;;;;;5073976;28;20127;-74
2024/01/11 02:58:59;;;;;;;49.17;22.38;;;-3.20;99.90;;;;;;5073650;28;20047;-74
2024/01/11 03:01:25;;;;;;;51.70;21.88;;;-3.30;99.90;;;;;;5073805;28;20525;-74
2024/01/11 03:03:51;;;;;;;48.38;22.90;;;-3.40;99.90;;;;;;5075050;28;20052;-74
2024/01/11 03:06:21;;;;;;;46.38;21.75;;;-3.30;99.90;;;;;;5057341;28;20033;-74
2024/01/11 03:08:47;;;;;;;52.53;23.35;;;-3.30;99.90;;;;;;5074813;28;20389;-74
2024/01/11 03:11:13;;;;;;;49.05;23.08;;;-3.40;99.90;;;;;;5075096;28;20036;-73
2024/01/11 03:13:38;;;;;;;51.28;23.20;;;-3.40;99.90;;;;;;5073811;28;20043;-73
2024/01/11 03:16:05;;;;;;;52.45;23.50;;;-3.50;99.90;;;;;;5073479;28;20448;-73
2024/01/11 03:18:31;;;;;;;50.55;23.25;;;-3.40;99.90;;;;;;5073176;28;20033;-74
2024/01/11 03:20:57;;;;;;;48.50;22.75;;;-3.40;99.90;;;;;;5074720;28;20029;-74
2024/01/11 03:23:22;;;;;;;51.85;22.10;;;-3.50;99.90;;;;;;5073478;28;20039;-74
2024/01/11 03:25:48;;;;;;;49.28;21.88;;;-3.50;99.90;;;;;;5073334;28;20037;-74
2024/01/11 03:28:14;;;;;;;47.58;21.95;;;-3.50;99.90;;;;;;5072313;28;20093;-74
2024/01/11 03:30:39;;;;;;;48.17;23.65;;;-3.50;99.90;;;;;;5074676;28;20036;-74
2024/01/11 03:33:05;;;;;;;51.47;23.85;;;-3.50;99.90;;;;;;5073498;28;20036;-74
2024/01/11 03:35:31;;;;;;;48.65;21.75;;;-3.50;99.90;;;;;;5056498;28;20514;-73
2024/01/11 03:37:56;;;;;;;51.97;22.02;;;-3.50;99.90;;;;;;5072978;28;20036;-74
2024/01/11 03:40:22;;;;;;;48.25;21.77;;;-3.50;99.90;;;;;;5073030;28;20039;-74
2024/01/11 03:42:48;;;;;;;50.35;23.70;;;-3.60;99.90;;;;;;5073103;28;20040;-73
2024/01/11 03:45:13;;;;;;;50.95;23.58;;;-3.50;99.90;;;;;;5072883;28;20462;-73
2024/01/11 03:47:39;;;;;;;48.53;21.30;;;-3.60;99.90;;;;;;5073029;28;20146;-73
2024/01/11 03:50:05;;;;;;;50.60;22.92;;;-3.60;99.90;;;;;;5072486;28;20032;-73
2024/01/11 03:52:30;;;;;;;45.72;21.17;;;-3.60;99.90;;;;;;5072924;28;20033;-73
2024/01/11 03:54:56;;;;;;;46.60;21.55;;;-3.70;99.90;;;;;;5074207;28;20036;-73
2024/01/11 03:57:22;;;;;;;49.28;23.23;;;-3.60;99.90;;;;;;5072891;28;20105;-73
2024/01/11 03:59:47;;;;;;;46.00;22.00;;;-3.60;99.90;;;;;;5072276;28;20565;-74
2024/01/11 04:02:13;;;;;;;48.85;22.83;;;-3.60;99.90;;;;;;5073933;28;20389;-73
2024/01/11 04:04:41;;;;;;;51.47;22.67;;;-3.60;99.90;;;;;;5072338;28;20524;-74
2024/01/11 04:07:06;;;;;;;48.03;22.25;;;-3.70;99.90;;;;;;5071371;28;20116;-74
2024/01/11 04:09:32;;;;;;;51.67;22.92;;;-3.60;99.90;;;;;;5072262;28;20072;-74
2024/01/11 04:11:58;;;;;;;47.25;22.77;;;-3.60;99.90;;;;;;5072833;28;20067;-74
2024/01/11 04:14:23;;;;;;;55.13;21.98;;;-3.70;99.90;;;;;;5072482;28;20538;-74
2024/01/11 04:16:49;;;;;;;53.90;23.30;;;-3.60;99.90;;;;;;5055665;28;20080;-74
2024/01/11 04:19:14;;;;;;;42.53;20.60;;;-3.50;99.90;;;;;;5072147;28;20522;-74
2024/01/11 04:21:40;;;;;;;51.67;22.70;;;-3.50;99.90;;;;;;5073635;28;20043;-74
2024/01/11 04:24:06;;;;;;;48.30;22.80;;;-3.50;99.90;;;;;;5072250;28;20458;-74
2024/01/11 04:26:32;;;;;;;49.67;21.67;;;-3.40;99.90;;;;;;5072170;28;20054;-74
2024/01/11 04:28:59;;;;;;;55.45;24.08;;;-3.30;99.90;;;;;;5072219;28;20123;-74
2024/01/11 04:31:25;;;;;;;45.20;22.17;;;-3.20;99.90;;;;;;5071936;28;20040;-74
2024/01/11 04:33:51;;;;;;;50.47;22.73;;;-3.30;99.90;;;;;;5073364;28;20067;-74
2024/01/11 04:36:17;;;;;;;49.03;22.58;;;-3.30;99.90;;;;;;5071958;28;20411;-74
2024/01/11 04:38:44;;;;;;;50.03;24.02;;;-3.10;99.90;;;;;;5071694;28;20519;-74
2024/01/11 04:41:10;;;;;;;51.10;23.73;;;-3.20;99.90;;;;;;5073430;28;20055;-74
2024/01/11 04:43:41;;;;;;;51.40;23.85;;;-3.10;99.90;;;;;;5073085;28;20474;-74
2024/01/11 04:46:17;;;;;;;51.17;24.30;;;-3.10;99.90;;;;;;5071864;28;20078;-73
2024/01/11 04:48:42;;;;;;;45.25;21.92;;;-3.20;99.90;;;;;;5071470;28;20131;-74
2024/01/11 04:51:08;;;;;;;49.67;23.67;;;-2.90;99.90;;;;;;5071791;28;20123;-74
2024/01/11 04:53:37;;;;;;;57.03;24.90;;;-2.90;99.90;;;;;;5073188;28;20615;-74
2024/01/11 04:56:03;;;;;;;52.42;23.40;;;-2.90;99.90;;;;;;5071835;28;20395;-74
2024/01/11 04:58:29;;;;;;;50.38;22.65;;;-3.00;99.90;;;;;;5072507;28;20107;-74
2024/01/11 05:00:54;;;;;;;55.10;24.10;;;-3.00;99.90;;;;;;5071827;28;20042;-74
2024/01/11 05:03:20;;;;;;;51.83;23.67;;;-2.80;99.90;;;;;;5071458;28;20565;-74
2024/01/11 05:05:45;;;;;;;54.75;23.50;;;-2.90;99.90;;;;;;5071383;28;20072;-74
2024/01/11 05:08:11;;;;;;;49.80;24.63;;;-2.70;99.90;;;;;;5071263;28;20036;-74
2024/01/11 05:10:37;;;;;;;55.03;23.67;;;-2.70;99.90;;;;;;5071354;28;20108;-74
2024/01/11 05:13:02;;;;;;;49.42;24.30;;;-2.70;99.90;;;;;;5071477;28;20102;-73
2024/01/11 05:15:28;;;;;;;48.72;23.77;;;-2.40;99.90;;;;;;5072461;28;20041;-73
2024/01/11 05:17:56;;;;;;;52.63;24.80;;;-2.50;99.90;;;;;;5071947;28;20469;-74
2024/01/11 05:20:21;;;;;;;56.63;24.83;;;-2.50;99.90;;;;;;5072212;28;20504;-74
2024/01/11 05:22:47;;;;;;;55.55;24.98;;;-2.50;99.90;;;;;;5070925;28;20032;-74
2024/01/11 05:25:14;;;;;;;54.08;24.15;;;-2.50;99.90;;;;;;5072168;28;20123;-74
2024/01/11 05:27:39;;;;;;;60.88;26.60;;;-2.40;99.90;;;;;;5070796;28;20534;-74
2024/01/11 05:30:06;;;;;;;53.28;25.40;;;-2.40;99.90;;;;;;5070775;28;20068;-74
2024/01/11 05:32:32;;;;;;;51.58;24.15;;;-2.30;99.90;;;;;;5071762;28;20059;-74
2024/01/11 05:34:58;;;;;;;52.05;23.58;;;-2.20;99.90;;;;;;5072146;28;20040;-74
2024/01/11 05:37:23;;;;;;;57.80;25.15;;;-2.20;99.90;;;;;;5070629;28;20044;-74
2024/01/11 05:39:49;;;;;;;55.55;25.30;;;-2.10;99.90;;;;;;5071760;28;20403;-74
2024/01/11 05:42:14;;;;;;;53.90;24.23;;;-2.20;99.90;;;;;;5072051;28;20071;-74
2024/01/11 05:44:40;;;;;;;54.70;24.90;;;-2.10;99.90;;;;;;5071976;28;20071;-74
2024/01/11 05:47:06;;;;;;;53.28;24.85;;;-2.00;99.90;;;;;;5070297;28;20644;-74
2024/01/11 05:49:31;;;;;;;58.30;25.35;;;-2.10;99.90;;;;;;5071755;28;20047;-74
2024/01/11 05:51:57;;;;;;;50.17;23.88;;;-2.00;99.90;;;;;;5072004;28;20040;-74
2024/01/11 05:54:23;;;;;;;51.03;23.25;;;-2.10;99.90;;;;;;5071859;28;20086;-74
2024/01/11 05:56:49;;;;;;;56.47;25.13;;;-2.00;99.90;;;;;;5070271;28;20032;-74
2024/01/11 05:59:15;;;;;;;53.45;23.60;;;-1.90;99.90;;;;;;5071357;28;20093;-74
2024/01/11 06:01:42;;;;;;;56.90;26.13;;;-1.90;99.90;;;;;;5071847;28;20438;-74
2024/01/11 06:04:08;;;;;;;56.78;25.48;;;-2.00;99.90;;;;;;5071918;28;20407;-74
2024/01/11 06:06:33;;;;;;;56.42;24.42;;;-2.00;99.90;;;;;;5071697;28;20198;-74
2024/01/11 06:08:59;;;;;;;50.72;24.98;;;-1.90;99.90;;;;;;5070213;28;20110;-74
2024/01/11 06:11:25;;;;;;;53.72;22.77;;;-2.00;99.90;;;;;;5070328;28;20044;-74
2024/01/11 06:13:50;;;;;;;49.20;23.85;;;-1.90;99.90;;;;;;5071557;28;20470;-74
2024/01/11 06:16:16;;;;;;;52.65;24.55;;;-1.80;99.90;;;;;;5070212;28;20089;-74
2024/01/11 06:18:41;;;;;;;56.72;25.77;;;-1.80;99.90;;;;;;5071248;28;20040;-74
2024/01/11 06:21:07;;;;;;;54.95;25.15;;;-1.70;99.90;;;;;;5071648;28;20067;-74
2024/01/11 06:23:33;;;;;;;55.88;24.92;;;-1.70;99.90;;;;;;5071506;28;20075;-74
2024/01/11 06:25:58;;;;;;;54.80;23.70;;;-1.80;99.90;;;;;;5071325;28;20519;-74
2024/01/11 06:28:24;;;;;;;51.13;24.55;;;-1.60;99.90;;;;;;5069720;28;20198;-74
2024/01/11 06:30:49;;;;;;;52.45;25.05;;;-1.70;99.90;;;;;;5070666;28;20037;-74
2024/01/11 06:33:15;;;;;;;52.53;24.92;;;-1.70;99.90;;;;;;5071577;28;20067;-74
2024/01/11 06:35:42;;;;;;;51.20;23.88;;;-1.50;99.90;;;;;;5071324;28;20516;-74
2024/01/11 06:38:07;;;;;;;48.13;23.75;;;-1.60;99.90;;;;;;5071021;28;20040;-74
2024/01/11 06:40:33;;;;;;;50.97;23.90;;;-1.60;99.90;;;;;;5069920;28;20040;-74
2024/01/11 06:42:58;;;;;;;53.08;25.58;;;-1.40;99.90;;;;;;5071304;28;20036;-74
2024/01/11 06:45:24;;;;;;;54.30;24.63;;;-1.50;99.90;;;;;;5069853;28;20500;-74
2024/01/11 06:47:49;;;;;;;52.58;25.17;;;-1.50;99.90;;;;;;5069746;28;20123;-74
2024/01/11 06:50:15;;;;;;;48.33;23.55;;;-1.40;99.90;;;;;;5071224;28;20071;-74
2024/01/11 06:52:41;;;;;;;55.70;24.70;;;-1.40;99.90;;;;;;5071249;28;20522;-74
2024/01/11 06:55:07;;;;;;;53.70;24.00;;;-1.40;99.90;;;;;;5071203;28;20032;-74
2024/01/11 06:57:32;;;;;;;57.08;26.05;;;-1.30;99.90;;;;;;5070161;28;20040;-74
2024/01/11 06:59:58;;;;;;;54.28;24.20;;;-1.40;99.90;;;;;;5070325;28;20521;-74
2024/01/11 07:02:24;;;;;;;54.15;24.42;;;-1.40;99.90;;;;;;5070818;28;20048;-74
2024/01/11 07:04:50;;;;;;;52.80;25.02;;;-1.20;99.90;;;;;;5070993;28;20045;-74
2024/01/11 07:07:15;;;;;;;59.10;25.60;;;-1.20;99.90;;;;;;5070012;28;20377;-75
2024/01/11 07:09:41;;;;;;;50.75;23.55;;;-1.30;99.90;;;;;;5069518;28;20037;-74
2024/01/11 07:12:07;;;;;;;54.92;23.83;;;-1.20;99.90;;;;;;5070994;28;20032;-74
2024/01/11 07:14:33;;;;;;;54.15;24.65;;;-1.30;99.90;;;;;;5070950;28;20048;-74
2024/01/11 07:16:58;;;;;;;53.72;23.75;;;-1.20;99.90;;;;;;5069769;28;20044;-75
2024/01/11 07:19:24;;;;;;;56.33;25.95;;;-1.10;99.90;;;;;;5070798;28;20032;-75
2024/01/11 07:21:49;;;;;;;56.35;25.67;;;-1.10;99.90;;;;;;5069937;28;20082;-74
2024/01/11 07:24:15;;;;;;;51.92;24.08;;;-1.10;99.90;;;;;;5069605;28;20584;-75
2024/01/11 07:26:41;;;;;;;55.97;25.63;;;-1.10;99.90;;;;;;5070764;28;20040;-75
2024/01/11 07:29:07;;;;;;;49.35;23.52;;;-1.00;99.90;;;;;;5069342;28;20045;-75
2024/01/11 07:31:33;;;;;;;50.88;23.63;;;-1.00;99.90;;;;;;5070850;28;20389;-74
2024/01/11 07:33:59;;;;;;;49.20;23.98;;;-1.20;99.90;;;;;;5071127;28;20086;-75
2024/01/11 07:36:24;;;;;;;48.55;24.95;;;-1.10;99.90;;;;;;5069800;28;20503;-74
2024/01/11 07:38:50;;;;;;;47.30;23.35;;;-1.00;99.90;;;;;;5052760;28;20045;-74
2024/01/11 07:41:16;;;;;;;49.38;24.05;;;-1.00;99.90;;;;;;5068959;28;20040;-74
2024/01/11 07:43:41;;;;;;;54.40;23.33;;;-1.00;99.90;;;;;;5074188;28;20085;-74
2024/01/11 07:46:07;;;;;;;53.00;22.48;;;-0.90;99.90;;;;;;5073014;28;20047;-75
2024/01/11 07:48:33;;;;;;;50.20;23.40;;;-1.00;99.90;;;;;;5073902;28;20036;-74
2024/01/11 07:50:59;;;;;;;49.80;24.42;;;-1.00;99.90;;;;;;5074133;28;20093;-74
2024/01/11 07:53:25;;;;;;;49.22;22.75;;;-1.00;99.90;;;;;;5072871;28;20044;-74
2024/01/11 07:55:52;;;;;;;47.30;22.80;;;-1.00;99.90;;;;;;5072867;28;20040;-74
2024/01/11 07:58:18;;;;;;;57.13;26.00;;;-0.80;99.90;;;;;;5073716;28;20427;-74
2024/01/11 08:00:44;;;;;;;54.08;25.35;;;-0.90;99.90;;;;;;5073920;28;20111;-75
2024/01/11 08:03:10;;;;;;;55.75;25.05;;;-0.70;99.90;;;;;;5072539;28;20135;-74
2024/01/11 08:05:36;;;;;;;49.22;23.35;;;-0.80;99.90;;;;;;5073973;28;20116;-74
2024/01/11 08:08:02;;;;;;;47.90;23.67;;;-0.60;99.90;;;;;;5072125;28;20063;-74
2024/01/11 08:10:28;;;;;;;47.90;23.00;;;-0.60;99.90;;;;;;5073862;28;20044;-75
2024/01/11 08:12:55;;;;;;;44.72;23.33;;;-0.60;99.90;;;;;;5072605;28;20091;-75
2024/01/11 08:15:21;;;;;;;50.50;23.80;;;-0.80;99.90;;;;;;5073904;28;20045;-74
2024/01/11 08:17:47;;;;;;;49.88;22.30;;;-0.80;99.90;;;;;;5072522;28;20051;-75
2024/01/11 08:20:13;;;;;;;46.63;23.45;;;-0.80;99.90;;;;;;5073545;28;20528;-75
2024/01/11 08:22:43;;;;;;;49.33;23.40;;;-0.60;99.90;;;;;;5072274;28;20495;-75
2024/01/11 08:25:09;;;;;;;49.80;23.70;;;-0.60;99.90;;;;;;5071931;28;20116;-75
2024/01/11 08:27:34;;;;;;;45.35;22.58;;;-0.80;99.90;;;;;;5072137;28;20068;-75
2024/01/11 08:30:00;;;;;;;47.33;22.85;;;-0.60;99.90;;;;;;5071944;28;20075;-75
2024/01/11 08:32:26;;;;;;;44.88;21.33;;;-0.60;99.90;;;;;;5073222;28;20044;-75
2024/01/11 08:34:52;;;;;;;46.22;21.73;;;-0.40;99.90;;;;;;5073488;28;20438;-74
2024/01/11 08:37:18;;;;;;;48.53;21.98;;;-0.60;99.90;;;;;;5072264;28;20040;-75
2024/01/11 08:39:46;;;;;;;44.28;21.10;;;-0.30;99.90;;;;;;5071566;28;20081;-75
2024/01/11 08:42:11;;;;;;;44.33;22.02;;;-0.30;99.90;;;;;;5071500;28;20048;-75
2024/01/11 08:44:43;;;;;;;46.88;21.95;;;-0.40;99.90;;;;;;5071691;28;20044;-75
2024/01/11 08:47:09;;;;;;;44.72;21.48;;;-0.20;99.90;;;;;;5073325;28;20040;-75
2024/01/11 08:49:41;;;;;;;46.65;20.77;;;-0.40;99.90;;;;;;5072068;28;20095;-75
2024/01/11 08:52:07;;;;;;;44.83;21.73;;;-0.30;99.90;;;;;;5073066;28;20116;-75
2024/01/11 08:54:34;;;;;;;52.15;23.38;;;-0.30;99.90;;;;;;5073636;28;20052;-74
2024/01/11 08:56:59;;;;;;;46.95;22.52;;;-0.20;99.90;;;;;;5072129;28;20078;-75
2024/01/11 08:59:25;;;;;;;45.78;22.50;;;-0.10;99.90;;;;;;5073131;28;20120;-75
2024/01/11 09:01:52;;;;;;;45.80;23.00;;;-0.10;99.90;;;;;;5071964;28;20052;-75
2024/01/11 09:04:17;;;;;;;48.97;23.67;;;-0.30;99.90;;;;;;5072820;28;20044;-75
2024/01/11 09:06:44;;;;;;;52.28;24.45;;;-0.20;99.90;;;;;;5071410;28;20040;-75
2024/01/11 09:09:14;;;;;;;45.15;23.27;;;-0.20;99.90;;;;;;5099574;23;20074;-73
2024/01/11 09:11:40;;;;;;;47.88;22.63;;;0.10;99.90;;;;;;5093309;28;20067;-73
2024/01/11 09:14:07;;;;;;;46.67;22.90;;;-0.10;99.90;;;;;;5074789;28;20114;-72
2024/01/11 09:16:33;;;;;;;45.72;22.17;;;0.10;99.90;;;;;;5074671;28;20047;-73
2024/01/11 09:19:02;;;;;;;48.00;23.38;;;0.10;99.90;;;;;;5080196;28;20089;-73
2024/01/11 09:21:27;;;;;;;48.65;22.25;;;0.20;99.90;;;;;;5094999;28;20040;-73
2024/01/11 09:23:53;;;;;;;43.03;21.75;;;0.20;99.90;;;;;;5095012;28;20486;-73
2024/01/11 09:26:18;;;;;;;46.70;21.23;;;0.10;99.90;;;;;;5094171;28;20043;-73
2024/01/11 09:28:45;;;;;;;44.17;20.75;;;0.00;99.90;;;;;;5074985;28;20028;-73
2024/01/11 09:31:11;;;;;;;46.10;24.10;;;0.10;99.90;;;;;;5091957;28;20071;-74
2024/01/11 09:33:37;;;;;;;44.90;22.55;;;0.40;99.90;;;;;;5092378;28;20067;-73
2024/01/11 09:36:02;;;;;;;43.85;21.23;;;0.40;99.90;;;;;;5077410;28;20078;-74
2024/01/11 09:38:28;;;;;;;43.70;21.42;;;0.40;99.90;;;;;;5073587;28;20035;-73
2024/01/11 09:41:04;;;;;;;42.95;20.88;;;0.30;99.90;;;;;;5089900;28;20532;-72
2024/01/11 09:43:31;;;;;;;44.35;20.67;;;0.50;99.90;;;;;;5094022;28;20050;-72
2024/01/11 09:45:57;;;;;;;45.03;21.02;;;0.40;99.90;;;;;;5071628;28;20522;-72
2024/01/11 09:48:25;;;;;;;43.20;20.63;;;0.50;99.90;;;;;;5087165;28;20059;-73
2024/01/11 09:50:52;;;;;;;42.25;19.90;;;0.40;99.90;;;;;;5086846;28;20467;-73
2024/01/11 09:53:20;;;;;;;41.55;20.08;;;0.50;99.90;;;;;;5112309;28;20044;-74
2024/01/11 09:55:46;;;;;;;44.58;21.67;;;0.70;99.90;;;;;;5094051;28;20099;-72
2024/01/11 09:58:14;;;;;;;40.47;20.38;;;0.70;99.90;;;;;;5093947;28;20050;-75
2024/01/11 10:00:40;;;;;;;42.08;20.92;;;0.70;99.90;;;;;;5093422;28;20043;-73
2024/01/11 10:03:06;;;;;;;43.45;20.35;;;0.60;99.90;;;;;;5077404;28;20556;-73
2024/01/11 10:05:35;;;;;;;41.03;19.38;;;0.60;99.90;;;;;;5093127;28;20040;-73
2024/01/11 10:08:00;;;;;;;39.00;19.30;;;0.90;99.90;;;;;;5111889;28;20517;-74
2024/01/11 10:10:27;;;;;;;37.47;19.63;;;0.70;99.90;;;;;;5112167;28;20118;-74
2024/01/11 10:12:53;;;;;;;38.88;19.42;;;0.70;99.90;;;;;;5093915;28;20032;-74
2024/01/11 10:15:18;;;;;;;37.05;18.40;;;0.90;99.90;;;;;;5076853;28;20099;-74
2024/01/11 10:17:45;;;;;;;39.00;19.08;;;1.00;99.90;;;;;;5093243;28;20618;-74
2024/01/11 10:20:15;;;;;;;40.20;18.83;;;0.80;99.90;;;;;;5092749;28;20522;-77
2024/01/11 10:22:41;;;;;;;38.78;17.58;;;0.80;99.90;;;;;;5076488;28;20043;-74
2024/01/11 10:25:15;;;;;;;39.13;19.63;;;1.10;99.90;;;;;;5093716;28;20525;-74
2024/01/11 10:27:42;;;;;;;39.60;18.80;;;1.10;99.90;;;;;;5093750;28;20149;-74
2024/01/11 10:30:08;;;;;;;37.67;18.95;;;1.10;99.90;;;;;;5076961;28;20440;-74
2024/01/11 10:32:36;;;;;;;40.22;19.42;;;1.00;99.90;;;;;;5112119;28;20032;-75
2024/01/11 10:35:04;;;;;;;32.88;17.92;;;1.10;99.90;;;;;;5093852;28;20040;-74
2024/01/11 10:37:34;;;;;;;37.95;19.13;;;0.90;99.90;;;;;;5093824;28;20062;-74
2024/01/11 10:40:09;;;;;;;38.58;18.20;;;0.90;99.90;;;;;;5093606;28;20046;-73
2024/01/11 10:42:37;;;;;;;40.95;18.60;;;1.10;99.90;;;;;;5093965;28;20131;-74
2024/01/11 10:45:07;;;;;;;38.83;20.10;;;1.20;99.90;;;;;;5093588;28;20079;-74
2024/01/11 10:47:36;;;;;;;38.17;20.92;;;1.20;99.90;;;;;;5093850;28;20383;-74
2024/01/11 10:50:04;;;;;;;33.05;18.27;;;1.10;99.90;;;;;;5076578;28;20040;-73
2024/01/11 10:52:40;;;;;;;40.70;18.90;;;1.20;99.90;;;;;;5111778;28;20039;-73
2024/01/11 10:55:06;;;;;;;39.05;20.27;;;1.30;99.90;;;;;;5077064;28;20487;-75
2024/01/11 10:57:33;;;;;;;38.25;18.92;;;1.10;99.90;;;;;;5093707;28;20043;-74
2024/01/11 11:00:02;;;;;;;40.83;18.42;;;1.10;99.90;;;;;;5093237;28;20077;-74
2024/01/11 11:02:29;;;;;;;39.22;18.90;;;1.10;99.90;;;;;;5076998;28;20516;-75
2024/01/11 11:04:56;;;;;;;35.88;16.98;;;1.30;99.90;;;;;;5093534;28;20070;-74
2024/01/11 11:07:22;;;;;;;33.17;17.67;;;1.40;99.90;;;;;;5091578;28;20043;-75
2024/01/11 11:09:51;;;;;;;34.72;18.00;;;1.30;99.90;;;;;;5090415;28;20507;-74
2024/01/11 11:12:19;;;;;;;32.90;17.40;;;1.30;99.90;;;;;;5076632;28;20042;-74
2024/01/11 11:14:47;;;;;;;35.80;17.02;;;1.40;99.90;;;;;;5093577;28;20043;-74
2024/01/11 11:17:15;;;;;;;37.78;17.40;;;1.50;99.90;;;;;;5114927;28;20040;-75
2024/01/11 11:19:41;;;;;;;36.05;16.52;;;1.40;99.90;;;;;;5115248;28;20074;-74
2024/01/11 11:22:07;;;;;;;38.20;17.80;;;1.50;99.90;;;;;;5115700;28;20108;-74
2024/01/11 11:24:36;;;;;;;35.22;17.35;;;1.30;99.90;;;;;;5097131;28;20032;-75
2024/01/11 11:27:01;;;;;;;33.85;18.60;;;1.40;99.90;;;;;;5096991;28;20648;-74
2024/01/11 11:29:27;;;;;;;39.40;18.92;;;1.40;99.90;;;;;;5097096;28;20049;-74
2024/01/11 11:31:55;;;;;;;38.63;17.90;;;1.30;99.90;;;;;;5115401;28;20070;-74
2024/01/11 11:34:41;;;;;;;34.65;18.10;;;1.60;99.90;;;;;;5115168;28;20035;-74
2024/01/11 11:37:06;;;;;;;32.25;17.83;;;1.60;99.90;;;;;;5115164;28;20500;-75
2024/01/11 11:39:32;;;;;;;35.25;17.17;;;1.50;99.90;;;;;;5096688;28;20043;-75
2024/01/11 11:42:00;;;;;;;34.28;17.27;;;1.50;99.90;;;;;;5096990;28;20051;-75
2024/01/11 11:44:26;;;;;;;37.75;18.70;;;1.50;99.90;;;;;;5115045;28;20036;-74
2024/01/11 11:46:51;;;;;;;37.53;18.27;;;1.70;99.90;;;;;;5096574;28;20038;-74
2024/01/11 11:49:17;;;;;;;36.47;16.75;;;1.70;99.90;;;;;;5096367;28;20027;-75
2024/01/11 11:51:43;;;;;;;31.27;17.58;;;1.50;99.90;;;;;;5096939;28;20490;-75
2024/01/11 11:54:10;;;;;;;33.95;17.77;;;1.50;99.90;;;;;;5095912;28;20046;-74
2024/01/11 11:56:36;;;;;;;35.33;17.05;;;1.70;99.90;;;;;;5093289;28;20043;-75
2024/01/11 11:59:03;;;;;;;33.63;16.20;;;1.70;99.90;;;;;;5095399;28;20047;-74
2024/01/11 12:01:31;;;;;;;30.83;15.73;;;1.70;99.90;;;;;;5096324;28;20140;-73
2024/01/11 12:03:57;;;;;;;35.05;16.27;;;1.60;99.90;;;;;;5079523;28;20039;-74
2024/01/11 12:06:24;;;;;;;32.13;17.13;;;1.50;99.90;;;;;;5096296;28;20559;-75
2024/01/11 12:08:52;;;;;;;33.10;17.98;;;1.80;99.90;;;;;;5095966;28;20397;-74
2024/01/11 12:11:20;;;;;;;34.65;17.42;;;1.50;99.90;;;;;;5094400;28;20417;-76
2024/01/11 12:13:47;;;;;;;38.42;18.52;;;1.50;99.90;;;;;;5095700;28;20428;-74
2024/01/11 12:16:13;;;;;;;35.42;17.90;;;1.50;99.90;;;;;;5095833;28;20039;-73
2024/01/11 12:18:39;;;;;;;36.05;19.00;;;1.70;99.90;;;;;;5095672;28;20035;-74
2024/01/11 12:21:05;;;;;;;34.85;18.13;;;1.70;99.90;;;;;;5095672;28;20040;-74
2024/01/11 12:23:34;;;;;;;41.35;20.08;;;1.50;99.90;;;;;;5096069;28;20039;-74
2024/01/11 12:26:03;;;;;;;35.90;18.85;;;1.50;99.90;;;;;;5096027;28;20551;-76